Tasman Sea — WDB5559 — position and weather

sailwx.info

Track history (hours):
 
Tides and Currents Weather Stations Pressure Air Temp Water Temp Dewpoint Dewpoint Depression Visibility Wind Speed Wind Dir Waves Ship Positions

Tasman Sea

Owner: Kirby Offshore Marine, LLC, Staten Island, NY. More information available from US FCC via Universal Licensing System and Coast Guard Vessel Documentation Center.

Last reported at 2016-Jun-23 13:29 UTC. Time now 2016-Jun-24 22:21 UTC.
Position N 40°39' W 074°07'.

Length 38 m; draft 6 m.

Type: . MMSI: 366910960.

Date/timePositionNaut miles runAvg speedWind from/ knotsBaromVisibWave heightAir tempDewpointWater temp
2016-Jun-23 13:29N 40°39' W 074°07'2 2.2
2016-Jun-23 12:32N 40°39' W 074°10'0 0.0
2016-Jun-23 11:32N 40°39' W 074°10'0 0.0
2016-Jun-23 10:32N 40°39' W 074°10'0 0.0
2016-Jun-23 09:32N 40°39' W 074°10'0 0.0
2016-Jun-23 08:32N 40°39' W 074°10'0 0.0
2016-Jun-23 07:32N 40°39' W 074°10'0 0.0
2016-Jun-23 05:29N 40°39' W 074°10'0 0.0
2016-Jun-23 04:32N 40°39' W 074°10'0 0.0
2016-Jun-23 03:32N 40°39' W 074°10'0 0.0
2016-Jun-23 02:32N 40°39' W 074°10'0 0.0
2016-Jun-22 14:08N 40°39' W 074°10'0 0.0
2016-Jun-22 12:11N 40°39' W 074°10'0 0.0
2016-Jun-20 21:28N 40°39' W 074°10'0 0.0
2016-Jun-20 07:32N 40°38' W 074°10'0 0.0
2016-Jun-20 06:20N 40°38' W 074°10'0 0.0
2016-Jun-20 05:29N 40°38' W 074°10'0 0.0
2016-Jun-20 03:17N 40°38' W 074°10'0 0.0
2016-Jun-20 02:26N 40°38' W 074°10'0 0.0
2016-Jun-20 01:26N 40°38' W 074°10'0 0.0
2016-Jun-20 00:32N 40°38' W 074°10'0 0.0
2016-Jun-19 23:23N 40°38' W 074°10'0 0.0
2016-Jun-19 22:26N 40°38' W 074°10'0 0.1
2016-Jun-19 21:06N 40°39' W 074°10'0 0.0
2016-Jun-19 18:04N 40°38' W 074°10'0 0.0
2016-Jun-19 17:28N 40°38' W 074°10'0 0.0
2016-Jun-19 16:28N 40°38' W 074°10'5 5.1
2016-Jun-19 15:34N 40°40' W 074°04'1 1.0
2016-Jun-19 14:34N 40°40' W 074°03'7 7.2
2016-Jun-19 13:31N 40°46' W 073°57'47 8.0
2016-Jun-19 07:33N 41°08' W 073°02'7 0.3
2016-Jun-18 03:11N 41°13' W 072°54'51 6.6
2016-Jun-17 19:27N 40°48' W 073°54'5 5.6
2016-Jun-17 18:33N 40°44' W 073°58'5 5.0
2016-Jun-17 17:33N 40°40' W 074°02'2 2.4
2016-Jun-17 16:33N 40°39' W 074°05'0 0.0
2016-Jun-17 15:32N 40°39' W 074°05'0 0.0
2016-Jun-17 14:32N 40°39' W 074°05'0 0.0
2016-Jun-17 13:32N 40°39' W 074°05'0 0.0
2016-Jun-17 12:32N 40°39' W 074°05'0 0.0
2016-Jun-17 11:32N 40°39' W 074°05'0 0.0
2016-Jun-17 10:32N 40°39' W 074°05'0 0.0
2016-Jun-17 09:32N 40°39' W 074°05'0 0.0
2016-Jun-17 08:32N 40°39' W 074°05'0 0.0
2016-Jun-17 07:32N 40°39' W 074°05'0 0.0
2016-Jun-17 06:32N 40°39' W 074°05'0 0.0
2016-Jun-17 05:32N 40°39' W 074°05'0 0.0
2016-Jun-17 04:32N 40°39' W 074°05'0 0.0
2016-Jun-17 03:32N 40°39' W 074°05'0 0.0
2016-Jun-17 02:32N 40°39' W 074°05'0 0.0
2016-Jun-17 01:32N 40°39' W 074°05'0 0.0
2016-Jun-17 00:32N 40°39' W 074°05'0 0.0
2016-Jun-16 23:32N 40°39' W 074°05'0 0.0
2016-Jun-16 22:32N 40°39' W 074°05'0 0.0
2016-Jun-16 21:29N 40°39' W 074°05'0 0.0
2016-Jun-16 20:33N 40°39' W 074°05'4 3.7
2016-Jun-16 19:33N 40°39' W 074°10'0 0.0
2016-Jun-16 18:33N 40°39' W 074°10'0 0.0
2016-Jun-16 17:33N 40°39' W 074°10'0 0.0
2016-Jun-16 16:33N 40°39' W 074°10'4 3.7
2016-Jun-16 15:33N 40°39' W 074°05'0 0.0
2016-Jun-16 14:33N 40°39' W 074°05'0 0.0
2016-Jun-16 13:33N 40°39' W 074°05'0 0.0
2016-Jun-16 12:33N 40°39' W 074°05'0 0.1
2016-Jun-16 11:33N 40°39' W 074°05'3 3.4
2016-Jun-16 10:33N 40°36' W 074°03'2 1.6
2016-Jun-16 09:33N 40°35' W 074°01'0 0.0
2016-Jun-16 08:33N 40°35' W 074°01'0 0.0
2016-Jun-16 07:09N 40°35' W 074°01'0 0.1
2016-Jun-16 04:33N 40°35' W 074°01'0 0.0
2016-Jun-16 03:33N 40°35' W 074°01'0 0.0
2016-Jun-16 02:30N 40°35' W 074°01'0 0.0
2016-Jun-16 01:24N 40°35' W 074°01'0 0.1
2016-Jun-15 22:18N 40°35' W 074°01'0 0.1
2016-Jun-15 21:27N 40°35' W 074°01'0 0.1
2016-Jun-15 20:30N 40°35' W 074°01'0 0.0
2016-Jun-15 19:33N 40°35' W 074°01'0 0.0
2016-Jun-15 18:30N 40°35' W 074°01'0 0.2
2016-Jun-15 17:33N 40°35' W 074°01'0 0.0
2016-Jun-15 16:27N 40°35' W 074°01'0 0.0
2016-Jun-15 15:33N 40°35' W 074°01'0 0.0
2016-Jun-15 14:33N 40°35' W 074°01'0 0.0
2016-Jun-15 13:33N 40°35' W 074°01'0 0.1
2016-Jun-15 12:33N 40°35' W 074°01'0 0.0
2016-Jun-15 11:33N 40°35' W 074°01'0 0.1
2016-Jun-15 10:21N 40°35' W 074°01'0 0.1
2016-Jun-15 09:27N 40°35' W 074°01'0 0.0
2016-Jun-15 08:33N 40°35' W 074°01'2 2.5
2016-Jun-15 07:33N 40°33' W 074°01'9 8.6
2016-Jun-15 06:32N 40°29' W 073°51'191 6.2
2016-Jun-13 23:34N 42°19' W 070°23'9 8.7
2016-Jun-13 22:33N 42°28' W 070°20'9 8.8
2016-Jun-13 21:33N 42°37' W 070°18'9 8.9
2016-Jun-13 20:34N 42°45' W 070°16'  
Track history (hours):
 
Tides and Currents Weather Stations Pressure Air Temp Water Temp Dewpoint Dewpoint Depression Visibility Wind Speed Wind Dir Waves Ship Positions

Tasman Sea

Owner: Kirby Offshore Marine, LLC, Staten Island, NY. More information available from US FCC via Universal Licensing System and Coast Guard Vessel Documentation Center.

Last reported at 2016-Jun-23 13:29 UTC. Time now 2016-Jun-24 22:21 UTC.
Position N 40°39' W 074°07'.

Length 38 m; draft 6 m.

Type: . MMSI: 366910960.

Date/timePositionNaut miles runAvg speedWind from/ knotsBaromVisibWave heightAir tempDewpointWater temp
2016-Jun-23 13:29N 40°39' W 074°07'2 2.2
2016-Jun-23 12:32N 40°39' W 074°10'0 0.0
2016-Jun-23 11:32N 40°39' W 074°10'0 0.0
2016-Jun-23 10:32N 40°39' W 074°10'0 0.0
2016-Jun-23 09:32N 40°39' W 074°10'0 0.0
2016-Jun-23 08:32N 40°39' W 074°10'0 0.0
2016-Jun-23 07:32N 40°39' W 074°10'0 0.0
2016-Jun-23 05:29N 40°39' W 074°10'0 0.0
2016-Jun-23 04:32N 40°39' W 074°10'0 0.0
2016-Jun-23 03:32N 40°39' W 074°10'0 0.0
2016-Jun-23 02:32N 40°39' W 074°10'0 0.0
2016-Jun-22 14:08N 40°39' W 074°10'0 0.0
2016-Jun-22 12:11N 40°39' W 074°10'0 0.0
2016-Jun-20 21:28N 40°39' W 074°10'0 0.0
2016-Jun-20 07:32N 40°38' W 074°10'0 0.0
2016-Jun-20 06:20N 40°38' W 074°10'0 0.0
2016-Jun-20 05:29N 40°38' W 074°10'0 0.0
2016-Jun-20 03:17N 40°38' W 074°10'0 0.0
2016-Jun-20 02:26N 40°38' W 074°10'0 0.0
2016-Jun-20 01:26N 40°38' W 074°10'0 0.0
2016-Jun-20 00:32N 40°38' W 074°10'0 0.0
2016-Jun-19 23:23N 40°38' W 074°10'0 0.0
2016-Jun-19 22:26N 40°38' W 074°10'0 0.1
2016-Jun-19 21:06N 40°39' W 074°10'0 0.0
2016-Jun-19 18:04N 40°38' W 074°10'0 0.0
2016-Jun-19 17:28N 40°38' W 074°10'0 0.0
2016-Jun-19 16:28N 40°38' W 074°10'5 5.1
2016-Jun-19 15:34N 40°40' W 074°04'1 1.0
2016-Jun-19 14:34N 40°40' W 074°03'7 7.2
2016-Jun-19 13:31N 40°46' W 073°57'47 8.0
2016-Jun-19 07:33N 41°08' W 073°02'7 0.3
2016-Jun-18 03:11N 41°13' W 072°54'51 6.6
2016-Jun-17 19:27N 40°48' W 073°54'5 5.6
2016-Jun-17 18:33N 40°44' W 073°58'5 5.0
2016-Jun-17 17:33N 40°40' W 074°02'2 2.4
2016-Jun-17 16:33N 40°39' W 074°05'0 0.0
2016-Jun-17 15:32N 40°39' W 074°05'0 0.0
2016-Jun-17 14:32N 40°39' W 074°05'0 0.0
2016-Jun-17 13:32N 40°39' W 074°05'0 0.0
2016-Jun-17 12:32N 40°39' W 074°05'0 0.0
2016-Jun-17 11:32N 40°39' W 074°05'0 0.0
2016-Jun-17 10:32N 40°39' W 074°05'0 0.0
2016-Jun-17 09:32N 40°39' W 074°05'0 0.0
2016-Jun-17 08:32N 40°39' W 074°05'0 0.0
2016-Jun-17 07:32N 40°39' W 074°05'0 0.0
2016-Jun-17 06:32N 40°39' W 074°05'0 0.0
2016-Jun-17 05:32N 40°39' W 074°05'0 0.0
2016-Jun-17 04:32N 40°39' W 074°05'0 0.0
2016-Jun-17 03:32N 40°39' W 074°05'0 0.0
2016-Jun-17 02:32N 40°39' W 074°05'0 0.0
2016-Jun-17 01:32N 40°39' W 074°05'0 0.0
2016-Jun-17 00:32N 40°39' W 074°05'0 0.0
2016-Jun-16 23:32N 40°39' W 074°05'0 0.0
2016-Jun-16 22:32N 40°39' W 074°05'0 0.0
2016-Jun-16 21:29N 40°39' W 074°05'0 0.0
2016-Jun-16 20:33N 40°39' W 074°05'4 3.7
2016-Jun-16 19:33N 40°39' W 074°10'0 0.0
2016-Jun-16 18:33N 40°39' W 074°10'0 0.0
2016-Jun-16 17:33N 40°39' W 074°10'0 0.0
2016-Jun-16 16:33N 40°39' W 074°10'4 3.7
2016-Jun-16 15:33N 40°39' W 074°05'0 0.0
2016-Jun-16 14:33N 40°39' W 074°05'0 0.0
2016-Jun-16 13:33N 40°39' W 074°05'0 0.0
2016-Jun-16 12:33N 40°39' W 074°05'0 0.1
2016-Jun-16 11:33N 40°39' W 074°05'3 3.4
2016-Jun-16 10:33N 40°36' W 074°03'2 1.6
2016-Jun-16 09:33N 40°35' W 074°01'0 0.0
2016-Jun-16 08:33N 40°35' W 074°01'0 0.0
2016-Jun-16 07:09N 40°35' W 074°01'0 0.1
2016-Jun-16 04:33N 40°35' W 074°01'0 0.0
2016-Jun-16 03:33N 40°35' W 074°01'0 0.0
2016-Jun-16 02:30N 40°35' W 074°01'0 0.0
2016-Jun-16 01:24N 40°35' W 074°01'0 0.1
2016-Jun-15 22:18N 40°35' W 074°01'0 0.1
2016-Jun-15 21:27N 40°35' W 074°01'0 0.1
2016-Jun-15 20:30N 40°35' W 074°01'0 0.0
2016-Jun-15 19:33N 40°35' W 074°01'0 0.0
2016-Jun-15 18:30N 40°35' W 074°01'0 0.2
2016-Jun-15 17:33N 40°35' W 074°01'0 0.0
2016-Jun-15 16:27N 40°35' W 074°01'0 0.0
2016-Jun-15 15:33N 40°35' W 074°01'0 0.0
2016-Jun-15 14:33N 40°35' W 074°01'0 0.0
2016-Jun-15 13:33N 40°35' W 074°01'0 0.1
2016-Jun-15 12:33N 40°35' W 074°01'0 0.0
2016-Jun-15 11:33N 40°35' W 074°01'0 0.1
2016-Jun-15 10:21N 40°35' W 074°01'0 0.1
2016-Jun-15 09:27N 40°35' W 074°01'0 0.0
2016-Jun-15 08:33N 40°35' W 074°01'2 2.5
2016-Jun-15 07:33N 40°33' W 074°01'9 8.6
2016-Jun-15 06:32N 40°29' W 073°51'191 6.2
2016-Jun-13 23:34N 42°19' W 070°23'9 8.7
2016-Jun-13 22:33N 42°28' W 070°20'9 8.8
2016-Jun-13 21:33N 42°37' W 070°18'9 8.9
2016-Jun-13 20:34N 42°45' W 070°16'  

Dump ship's entire track history